Time;durP1;ratioP1;P1;durP2;ratioP2;P2;SDS_P1;SDS_P2;PMS_P1;PMS_P2;Temp;Humidity;BMP_temperature;BMP_pressure;BME280_temperature;BME280_humidity;BME280_pressure;Samples;Min_cycle;Max_cycle;Signal;HPM_P1;HPM_P2
2022/05/24 00:00:46;;;;;;;5.00;2.80;;;;;;;5.50;75.57;98507.27;104755;1271;75512;-26
2022/05/24 00:03:13;;;;;;;3.20;2.70;;;;;;;5.22;76.23;98507.84;105041;1271;63068;-25
2022/05/24 00:05:41;;;;;;;5.60;2.90;;;;;;;4.98;77.11;98505.81;105054;1271;61770;-25
2022/05/24 00:08:08;;;;;;;6.00;2.90;;;;;;;4.70;78.38;98507.10;104974;1273;76611;-25
2022/05/24 00:10:36;;;;;;;4.20;1.60;;;;;;;4.53;78.84;98508.89;105023;1271;77248;-25
2022/05/24 00:13:04;;;;;;;3.20;2.10;;;;;;;5.00;78.99;98509.45;104798;1272;75491;-25
2022/05/24 00:15:31;;;;;;;4.60;2.40;;;;;;;5.53;77.55;98512.45;104879;1274;61051;-25
2022/05/24 00:18:00;;;;;;;2.80;1.90;;;;;;;5.59;76.81;98513.08;105154;1271;61705;-25
2022/05/24 00:20:42;;;;;;;4.80;2.60;;;;;;;5.38;76.56;98512.45;105172;1271;76359;-25
2022/05/24 00:23:10;;;;;;;4.30;2.00;;;;;;;5.09;77.25;98515.55;104744;1272;76899;-25
2022/05/24 00:25:39;;;;;;;6.00;2.70;;;;;;;4.84;78.03;98518.05;104830;1271;75128;-25
2022/05/24 00:28:07;;;;;;;3.50;2.00;;;;;;;4.62;78.61;98517.45;104724;1271;62440;-25
2022/05/24 00:30:35;;;;;;;3.50;1.60;;;;;;;4.44;78.79;98516.55;104777;1273;61713;-25
2022/05/24 00:33:04;;;;;;;2.90;1.70;;;;;;;4.86;78.67;98516.89;104866;1274;74962;-25
2022/05/24 00:35:32;;;;;;;3.50;2.20;;;;;;;5.42;77.31;98515.60;104838;1271;76778;-25
2022/05/24 00:37:59;;;;;;;3.50;2.10;;;;;;;5.49;76.85;98515.13;104802;1272;74368;-25
2022/05/24 00:40:45;;;;;;;4.70;2.20;;;;;;;5.32;76.61;98516.77;105049;1271;63139;-25
2022/05/24 00:43:15;;;;;;;7.30;2.40;;;;;;;5.03;77.01;98517.38;104829;1271;63103;-25
2022/05/24 00:45:47;;;;;;;4.90;2.20;;;;;;;4.75;76.97;98514.23;104686;1271;76939;-25
2022/05/24 00:48:33;;;;;;;2.50;1.70;;;;;;;4.50;76.49;98519.61;104723;1271;76975;-25
2022/05/24 00:51:00;;;;;;;2.90;1.60;;;;;;;4.33;77.83;98520.69;104610;1271;74101;-25
2022/05/24 00:53:48;;;;;;;4.20;2.00;;;;;;;4.87;77.97;98523.52;105068;1272;62032;-25
2022/05/24 00:56:21;;;;;;;6.10;2.10;;;;;;;5.44;76.11;98525.23;104856;1271;63119;-25
2022/05/24 00:58:54;;;;;;;3.00;1.80;;;;;;;5.45;75.80;98526.02;104702;1271;76502;-25
2022/05/24 01:01:33;;;;;;;5.70;2.20;;;;;;;5.23;75.84;98522.70;104671;1274;75690;-25
2022/05/24 01:04:01;;;;;;;5.80;2.50;;;;;;;4.96;76.60;98521.96;104742;1273;75300;-25
2022/05/24 01:06:28;;;;;;;7.90;3.00;;;;;;;4.69;77.38;98527.48;105054;1271;62188;-25
2022/05/24 01:08:57;;;;;;;4.30;2.20;;;;;;;4.37;77.87;98523.52;104944;1273;61128;-25
2022/05/24 01:11:24;;;;;;;3.60;1.60;;;;;;;4.15;78.36;98526.96;104552;1274;76550;-25
2022/05/24 01:13:52;;;;;;;5.20;2.10;;;;;;;4.53;78.20;98528.55;104805;1272;76029;-25
2022/05/24 01:16:19;;;;;;;4.00;2.00;;;;;;;5.04;76.86;98528.63;104792;1271;75515;-25
2022/05/24 01:18:47;;;;;;;4.50;2.10;;;;;;;5.07;75.84;98526.91;104811;1271;61143;-25
2022/05/24 01:21:15;;;;;;;6.30;3.00;;;;;;;4.85;75.93;98526.30;104965;1273;60990;-25
2022/05/24 01:24:08;;;;;;;4.90;2.70;;;;;;;4.55;77.02;98527.20;104953;1273;75303;-25
2022/05/24 01:26:55;;;;;;;6.10;2.40;;;;;;;4.21;78.18;98526.40;104776;1273;76917;-25
2022/05/24 01:29:23;;;;;;;4.70;2.20;;;;;;;3.93;78.49;98526.41;104767;1271;74847;-25
2022/05/24 01:37:24;;;;;;;4.70;2.30;;;;;;;4.78;76.49;98526.74;105050;1272;76640;-25
2022/05/24 01:39:52;;;;;;;7.70;2.20;;;;;;;4.76;75.81;98529.42;104835;1273;75825;-25
2022/05/24 01:42:21;;;;;;;4.30;2.40;;;;;;;4.56;76.03;98529.73;104430;1273;74417;-25
2022/05/24 01:44:52;;;;;;;4.70;2.20;;;;;;;4.28;76.65;98532.85;104719;1273;63007;-25
2022/05/24 01:47:19;;;;;;;4.80;2.60;;;;;;;4.00;77.56;98533.58;104799;1272;61820;-25
2022/05/24 01:49:49;;;;;;;7.00;2.70;;;;;;;3.76;78.59;98535.94;105021;1271;76574;-25
2022/05/24 01:52:26;;;;;;;6.90;1.80;;;;;;;3.59;79.43;98538.45;104598;1273;76990;-25
2022/05/24 01:54:56;;;;;;;8.00;2.30;;;;;;;4.09;79.37;98543.31;104807;1271;75513;-25
2022/05/24 01:57:26;;;;;;;9.40;2.70;;;;;;;4.62;77.42;98540.70;104960;1271;61754;-25
2022/05/24 01:59:55;;;;;;;3.60;2.30;;;;;;;4.65;76.35;98538.11;104857;1271;63258;-25
2022/05/24 02:02:22;;;;;;;7.80;2.50;;;;;;;4.46;76.34;98536.84;104676;1271;75503;-25
2022/05/24 02:04:50;;;;;;;4.80;2.40;;;;;;;4.18;77.01;98536.05;105096;1271;75939;-25
2022/05/24 02:07:23;;;;;;;3.10;2.30;;;;;;;3.90;77.30;98530.77;105115;1271;75496;-25
2022/05/24 02:09:55;;;;;;;4.10;2.60;;;;;;;3.65;77.74;98532.27;104769;1271;61179;-25
2022/05/24 02:12:25;;;;;;;6.40;1.60;;;;;;;3.47;78.31;98533.38;104670;1271;61893;-25
2022/05/24 02:15:01;;;;;;;4.40;1.60;;;;;;;3.90;78.37;98534.37;105049;1271;75283;-25
2022/05/24 02:17:32;;;;;;;4.00;2.20;;;;;;;4.50;77.34;98537.33;105016;1271;77132;-25
2022/05/24 02:20:01;;;;;;;7.20;2.00;;;;;;;4.58;76.89;98540.36;105055;1271;74394;-25
2022/05/24 02:22:28;;;;;;;5.50;2.30;;;;;;;4.45;76.76;98539.19;104765;1273;62652;-25
2022/05/24 02:25:07;;;;;;;3.60;2.40;;;;;;;4.22;76.73;98537.52;104903;1272;61183;-25
2022/05/24 02:27:38;;;;;;;3.70;2.60;;;;;;;3.95;77.00;98537.45;104840;1272;76485;-25
2022/05/24 02:30:07;;;;;;;3.20;2.20;;;;;;;3.70;77.60;98532.85;104634;1271;77044;-25
2022/05/24 02:32:34;;;;;;;5.20;1.50;;;;;;;3.48;78.11;98535.23;104797;1271;75417;-25
2022/05/24 02:35:02;;;;;;;4.30;1.90;;;;;;;3.93;78.36;98536.57;104913;1271;61131;-26
2022/05/24 02:37:30;;;;;;;7.50;2.30;;;;;;;4.62;77.34;98535.70;105125;1272;62792;-25
2022/05/24 02:42:43;;;;;;;7.60;2.10;;;;;;;5.15;75.90;98545.63;104998;1271;76048;-25
2022/05/24 02:45:11;;;;;;;5.80;2.60;;;;;;;5.27;75.22;98545.67;104786;1272;74414;-26
2022/05/24 02:47:38;;;;;;;6.00;2.50;;;;;;;5.38;74.60;98544.96;104916;1271;61130;-25
2022/05/24 02:50:09;;;;;;;3.50;1.60;;;;;;;5.52;74.65;98546.26;105024;1271;61181;-25
2022/05/24 02:52:40;;;;;;;4.00;1.80;;;;;;;6.28;73.95;98544.80;104756;1271;76528;-25
2022/05/24 02:55:09;;;;;;;3.90;2.10;;;;;;;7.22;71.12;98548.98;104626;1271;77005;-25
2022/05/24 02:57:40;;;;;;;3.80;2.10;;;;;;;7.69;69.83;98545.92;104561;1274;74471;-25
2022/05/24 03:00:11;;;;;;;4.00;2.30;;;;;;;7.87;68.81;98549.23;104750;1271;62133;-25
2022/05/24 03:02:39;;;;;;;3.40;2.00;;;;;;;7.97;68.90;98552.95;104782;1271;62022;-25
2022/05/24 03:05:10;;;;;;;6.00;2.80;;;;;;;8.09;68.46;98555.49;104666;1273;76481;-25
2022/05/24 03:10:24;;;;;;;4.50;2.10;;;;;;;8.16;65.23;98556.66;104940;1271;75554;-25
2022/05/24 03:15:39;;;;;;;3.50;1.70;;;;;;;8.09;66.39;98560.29;104758;1271;61192;-25
2022/05/24 03:18:08;;;;;;;3.60;1.80;;;;;;;8.97;66.02;98562.10;104711;1271;76194;-25
2022/05/24 03:20:35;;;;;;;3.70;2.30;;;;;;;9.97;62.47;98565.40;104652;1272;76911;-25
2022/05/24 03:23:03;;;;;;;3.60;1.90;;;;;;;10.53;61.38;98562.25;104706;1272;75368;-25
2022/05/24 03:25:32;;;;;;;3.70;2.10;;;;;;;10.81;60.38;98562.40;104634;1271;61789;-25
2022/05/24 03:28:00;;;;;;;6.80;2.40;;;;;;;10.81;59.21;98558.91;104590;1273;63062;-25
2022/05/24 03:30:27;;;;;;;3.30;3.00;;;;;;;10.73;59.39;98564.47;104398;1272;481317;-25
2022/05/24 03:32:55;;;;;;;3.20;2.20;;;;;;;10.79;59.89;98560.29;104766;1272;74635;-25
2022/05/24 03:35:23;;;;;;;6.30;2.50;;;;;;;10.78;58.92;98560.44;104709;1271;75456;-26
2022/05/24 03:37:51;;;;;;;3.70;2.00;;;;;;;10.74;59.45;98562.85;104754;1272;63309;-25
2022/05/24 03:40:18;;;;;;;6.50;2.80;;;;;;;10.64;60.82;98560.23;104693;1273;61677;-25
2022/05/24 03:42:46;;;;;;;3.30;2.60;;;;;;;10.58;60.60;98557.82;104787;1271;76914;-25
2022/05/24 03:45:13;;;;;;;4.40;3.20;;;;;;;10.66;58.79;98554.91;104694;1273;75958;-25
2022/05/24 03:47:41;;;;;;;5.10;3.30;;;;;;;10.84;58.92;98553.95;104741;1271;75400;-25
2022/05/24 03:50:09;;;;;;;4.60;2.70;;;;;;;11.07;58.87;98555.84;104744;1272;62011;-25
2022/05/24 03:52:36;;;;;;;3.40;2.80;;;;;;;11.24;59.75;98559.05;104781;1271;62461;-25
2022/05/24 03:55:04;;;;;;;5.50;3.40;;;;;;;11.42;59.83;98556.48;104740;1273;76595;-25
2022/05/24 04:00:19;;;;;;;5.40;3.40;;;;;;;11.79;58.80;98561.98;105027;1271;75413;-25
2022/05/24 04:02:47;;;;;;;5.10;3.20;;;;;;;12.04;58.49;98562.08;104762;1272;63189;-25
2022/05/24 04:05:15;;;;;;;4.80;2.70;;;;;;;12.28;57.62;98564.02;104641;1273;63055;-25
2022/05/24 04:07:42;;;;;;;4.30;3.20;;;;;;;12.43;57.15;98561.88;104784;1273;76467;-25
2022/05/24 04:10:11;;;;;;;4.60;3.30;;;;;;;12.46;57.21;98561.60;104761;1271;76999;-25
2022/05/24 04:12:39;;;;;;;7.60;2.70;;;;;;;12.54;57.88;98563.95;104763;1272;75531;-25
2022/05/24 04:15:07;;;;;;;4.60;2.90;;;;;;;12.72;57.88;98566.77;104716;1271;61896;-26
2022/05/24 04:17:36;;;;;;;4.50;2.90;;;;;;;12.88;57.33;98562.35;104415;1273;62848;-25
2022/05/24 04:20:07;;;;;;;4.00;2.60;;;;;;;12.91;56.73;98563.26;104762;1273;76326;-25
2022/05/24 04:22:35;;;;;;;5.20;2.60;;;;;;;12.97;56.81;98561.84;104522;1273;76733;-25
2022/05/24 04:25:03;;;;;;;4.90;2.60;;;;;;;13.07;57.52;98563.14;104879;1273;74398;-25
2022/05/24 04:27:30;;;;;;;5.40;2.80;;;;;;;13.19;56.52;98565.41;104615;1274;62855;-25
2022/05/24 04:29:58;;;;;;;4.90;2.60;;;;;;;13.41;55.87;98563.59;104692;1273;61876;-25
2022/05/24 04:32:25;;;;;;;4.30;3.00;;;;;;;13.57;54.53;98561.88;104611;1273;76580;-25
2022/05/24 04:34:52;;;;;;;6.00;3.50;;;;;;;13.71;54.89;98566.55;104615;1273;75900;-25
2022/05/24 04:37:20;;;;;;;5.40;2.70;;;;;;;13.82;53.68;98567.84;104639;1273;75503;-25
2022/05/24 04:39:47;;;;;;;4.40;2.80;;;;;;;13.93;52.40;98567.98;104703;1273;62038;-25
2022/05/24 04:42:24;;;;;;;8.80;2.50;;;;;;;14.07;53.55;98570.35;104936;1273;63021;-27
2022/05/24 04:44:52;;;;;;;4.10;2.30;;;;;;;14.20;51.35;98574.82;104789;1273;76806;-27
2022/05/24 04:47:21;;;;;;;5.40;2.00;;;;;;;14.38;51.78;98575.16;104858;1273;76142;-26
2022/05/24 04:49:56;;;;;;;5.40;2.30;;;;;;;14.53;51.92;98578.66;104874;1274;75539;-25
2022/05/24 04:52:37;;;;;;;3.20;2.50;;;;;;;14.73;51.75;98576.23;104711;1273;62830;-25
2022/05/24 04:55:06;;;;;;;3.60;2.00;;;;;;;14.96;50.39;98578.37;104515;1273;62245;-25
2022/05/24 04:57:34;;;;;;;3.00;1.90;;;;;;;15.14;49.89;98577.33;104428;1273;76247;-25
2022/05/24 05:00:04;;;;;;;5.90;2.40;;;;;;;15.34;50.31;98579.95;104588;1273;76005;-25
2022/05/24 05:02:31;;;;;;;4.80;2.30;;;;;;;15.55;47.75;98580.60;104820;1274;75395;-24
2022/05/24 05:04:59;;;;;;;3.70;2.40;;;;;;;15.69;46.58;98582.46;104895;1273;62799;-25
2022/05/24 05:07:27;;;;;;;6.20;2.50;;;;;;;15.80;45.88;98580.20;104672;1273;63079;-25
2022/05/24 05:09:59;;;;;;;5.30;2.50;;;;;;;15.93;44.75;98582.79;104777;1273;76571;-24
2022/05/24 05:12:26;;;;;;;5.30;2.80;;;;;;;16.11;46.47;98583.30;104718;1273;74928;-24
2022/05/24 05:14:54;;;;;;;5.70;2.20;;;;;;;16.18;45.13;98588.09;104632;1273;75364;-25
2022/05/24 05:17:21;;;;;;;4.80;2.50;;;;;;;16.18;44.32;98591.36;104642;1273;62100;-25
2022/05/24 05:19:49;;;;;;;3.40;2.50;;;;;;;16.36;44.32;98591.89;104948;1273;61974;-25
2022/05/24 05:22:23;;;;;;;17.90;9.90;;;;;;;16.17;42.95;98594.77;105123;1271;76345;-25
2022/05/24 05:24:51;;;;;;;26.20;13.10;;;;;;;16.08;41.99;98594.67;104750;1273;77057;-25
2022/05/24 05:27:19;;;;;;;7.20;3.80;;;;;;;15.96;39.85;98597.09;104655;1273;75485;-25
2022/05/24 05:32:35;;;;;;;3.90;2.90;;;;;;;15.32;41.49;98601.31;104681;1273;63421;-25
2022/05/24 05:35:03;;;;;;;18.40;8.70;;;;;;;15.41;43.62;98604.52;104633;1273;76554;-25
2022/05/24 05:37:32;;;;;;;7.60;3.60;;;;;;;15.60;44.37;98604.92;104705;1273;77073;-25
2022/05/24 05:40:03;;;;;;;14.40;6.30;;;;;;;15.91;43.49;98608.55;104610;1273;75152;-25
2022/05/24 05:42:31;;;;;;;10.20;5.20;;;;;;;16.15;41.79;98611.69;104615;1273;63081;-25
2022/05/24 05:45:00;;;;;;;8.50;4.30;;;;;;;16.23;39.50;98615.24;104677;1273;61723;-25
2022/05/24 05:47:27;;;;;;;4.50;3.20;;;;;;;15.79;40.05;98614.55;104580;1273;76323;-25
2022/05/24 05:49:55;;;;;;;10.40;5.10;;;;;;;16.15;40.29;98616.57;104647;1273;75910;-25
2022/05/24 05:52:22;;;;;;;4.80;2.70;;;;;;;15.85;40.61;98616.39;104622;1274;75361;-24
2022/05/24 05:54:49;;;;;;;9.00;3.80;;;;;;;16.19;41.39;98617.86;104575;1273;62943;-24
2022/05/24 05:57:17;;;;;;;5.20;3.40;;;;;;;16.47;41.35;98621.81;104658;1273;63289;-25
2022/05/24 05:59:45;;;;;;;13.90;6.60;;;;;;;15.64;41.48;98622.99;104644;1272;76581;-25
2022/05/24 06:02:13;;;;;;;6.10;3.60;;;;;;;15.96;40.65;98620.45;104600;1273;75659;-24
2022/05/24 06:04:40;;;;;;;4.10;3.00;;;;;;;16.52;38.76;98624.05;104593;1273;74503;-24
2022/05/24 06:07:09;;;;;;;3.90;2.10;;;;;;;16.63;38.62;98626.34;104654;1273;62050;-24
2022/05/24 06:09:37;;;;;;;5.70;2.40;;;;;;;16.79;37.33;98629.55;104648;1273;63029;-25
2022/05/24 06:12:05;;;;;;;3.20;2.30;;;;;;;16.90;36.88;98629.93;104644;1274;74318;-24
2022/05/24 06:14:32;;;;;;;5.70;2.10;;;;;;;17.07;37.08;98631.20;104435;1273;77014;-24
2022/05/24 06:17:21;;;;;;;3.80;2.20;;;;;;;17.13;36.96;98633.68;104704;1273;74212;-24
2022/05/24 06:19:49;;;;;;;2.60;2.20;;;;;;;17.47;37.59;98638.95;104954;1273;61450;-24
2022/05/24 06:22:16;;;;;;;4.70;2.40;;;;;;;17.64;36.64;98638.46;105048;1273;63126;-24
2022/05/24 06:24:46;;;;;;;11.00;6.90;;;;;;;17.91;36.32;98636.89;104788;1273;75497;-24
2022/05/24 06:27:14;;;;;;;46.10;25.10;;;;;;;17.53;35.21;98636.20;104764;1275;75680;-24
2022/05/24 06:29:42;;;;;;;6.60;3.80;;;;;;;17.65;35.67;98637.06;104796;1273;73327;-24
2022/05/24 06:32:09;;;;;;;18.80;9.50;;;;;;;17.74;35.69;98633.23;104722;1273;61996;-24
2022/05/24 06:34:36;;;;;;;6.90;3.60;;;;;;;18.16;36.00;98637.86;104738;1273;63204;-25
2022/05/24 06:37:04;;;;;;;8.80;3.60;;;;;;;17.02;34.60;98638.84;104838;1273;75313;-24
2022/05/24 06:39:31;;;;;;;7.20;4.40;;;;;;;17.02;36.25;98637.69;104695;1273;76878;-24
2022/05/24 06:42:00;;;;;;;7.10;2.70;;;;;;;17.33;34.90;98638.71;104575;1273;75491;-24
2022/05/24 06:44:27;;;;;;;5.20;2.40;;;;;;;17.16;35.54;98638.25;104655;1273;61161;-24
2022/05/24 06:46:55;;;;;;;4.70;3.00;;;;;;;17.37;34.97;98634.05;104645;1273;62730;-24
2022/05/24 06:49:22;;;;;;;4.30;2.20;;;;;;;17.65;35.11;98640.23;104626;1273;76588;-25
2022/05/24 06:51:50;;;;;;;5.00;2.20;;;;;;;17.60;33.01;98639.16;105084;1273;76744;-25
2022/05/24 06:54:17;;;;;;;11.60;6.80;;;;;;;17.62;32.96;98634.95;104961;1273;75375;-25
2022/05/24 06:56:45;;;;;;;4.70;2.90;;;;;;;17.79;31.86;98638.92;104833;1273;61046;-25
2022/05/24 07:04:45;;;;;;;2.80;2.20;;;;;;;17.54;32.02;98631.15;104587;1273;77095;-25
2022/05/24 07:07:13;;;;;;;2.20;2.00;;;;;;;18.19;33.93;98635.46;104591;1273;75447;-25
2022/05/24 07:09:41;;;;;;;5.20;2.50;;;;;;;18.58;32.87;98642.98;104706;1273;62249;-25
2022/05/24 07:12:09;;;;;;;15.50;7.40;;;;;;;18.81;31.42;98644.80;104654;1273;63111;-26
2022/05/24 07:14:37;;;;;;;6.50;3.80;;;;;;;18.44;31.30;98643.09;104586;1273;76503;-25
2022/05/24 07:17:04;;;;;;;8.80;4.70;;;;;;;18.84;31.79;98643.33;104675;1273;76979;-25
2022/05/24 07:19:32;;;;;;;16.40;7.10;;;;;;;18.80;31.11;98637.52;105029;1273;75382;-25
2022/05/24 07:22:00;;;;;;;4.70;2.10;;;;;;;18.44;29.34;98636.14;105005;1273;61118;-25
2022/05/24 07:24:28;;;;;;;2.70;1.80;;;;;;;18.46;30.53;98634.83;105018;1271;62727;-25
2022/05/24 07:26:55;;;;;;;3.80;2.30;;;;;;;18.09;30.22;98634.29;104745;1273;75481;-25
2022/05/24 07:29:23;;;;;;;2.20;1.30;;;;;;;18.16;29.84;98631.11;104705;1273;77001;-25
2022/05/24 07:31:50;;;;;;;3.40;1.80;;;;;;;18.48;31.20;98633.97;104572;1274;74404;-25
2022/05/24 07:34:19;;;;;;;5.80;1.90;;;;;;;18.77;30.29;98634.40;104624;1273;62082;-25
2022/05/24 07:36:46;;;;;;;8.60;3.70;;;;;;;18.83;30.18;98635.89;104608;1273;62036;-25
2022/05/24 07:39:14;;;;;;;5.30;2.70;;;;;;;19.25;30.32;98633.27;104604;1273;76542;-25
2022/05/24 07:47:35;;;;;;;8.90;5.20;;;;;;;18.05;29.13;98635.19;104467;1275;61868;-25
2022/05/24 07:50:04;;;;;;;5.10;1.90;;;;;;;18.97;29.52;98640.58;104703;1273;63106;-25
2022/05/24 07:52:31;;;;;;;2.80;1.90;;;;;;;19.47;29.88;98633.20;104631;1273;74531;-24
2022/05/24 07:54:59;;;;;;;6.50;3.30;;;;;;;19.79;29.31;98631.82;104648;1273;75929;-25
2022/05/24 07:57:26;;;;;;;4.50;2.10;;;;;;;19.84;27.68;98631.52;104637;1273;74253;-25
2022/05/24 07:59:54;;;;;;;3.00;1.80;;;;;;;20.01;27.72;98633.08;104845;1273;63070;-25
2022/05/24 08:02:21;;;;;;;2.10;1.60;;;;;;;20.18;28.77;98631.61;104660;1273;62522;-25
2022/05/24 08:04:52;;;;;;;7.10;2.10;;;;;;;19.98;28.75;98630.59;104646;1273;76347;-25
2022/05/24 08:07:20;;;;;;;2.60;1.80;;;;;;;19.86;27.36;98630.12;104599;1273;75986;-25
2022/05/24 08:09:48;;;;;;;5.70;2.00;;;;;;;20.13;28.07;98633.50;104617;1273;73776;-25
2022/05/24 08:12:15;;;;;;;2.30;1.40;;;;;;;20.44;27.54;98632.54;104697;1272;61242;-25
2022/05/24 08:14:43;;;;;;;3.60;2.40;;;;;;;20.07;27.45;98630.21;104604;1273;62023;-25
2022/05/24 08:17:10;;;;;;;3.80;1.90;;;;;;;20.03;27.10;98628.30;104695;1273;76651;-25
2022/05/24 08:19:40;;;;;;;3.70;1.80;;;;;;;20.62;26.75;98628.88;104623;1273;76721;-25
2022/05/24 08:22:07;;;;;;;9.50;2.90;;;;;;;20.91;25.80;98626.71;104605;1273;75496;-25
2022/05/24 08:24:36;;;;;;;4.10;2.90;;;;;;;20.71;26.46;98633.17;104654;1273;61223;-25
2022/05/24 08:27:04;;;;;;;4.80;1.60;;;;;;;21.20;26.17;98633.13;104693;1273;62721;-25
2022/05/24 08:29:32;;;;;;;4.60;2.40;;;;;;;21.32;26.35;98630.31;104885;1273;75456;-25
2022/05/24 08:32:00;;;;;;;3.00;1.80;;;;;;;21.32;26.26;98625.71;104921;1273;75993;-25
2022/05/24 08:34:27;;;;;;;3.70;2.10;;;;;;;21.86;26.16;98623.67;104687;1273;73966;-25
2022/05/24 08:36:56;;;;;;;10.10;2.80;;;;;;;22.03;24.63;98617.33;104574;1273;61877;-25
2022/05/24 08:39:23;;;;;;;7.10;2.20;;;;;;;21.44;23.94;98621.33;104873;1273;63037;-25
2022/05/24 08:42:07;;;;;;;15.70;7.80;;;;;;;20.49;25.76;98618.48;104797;1273;76150;-25
2022/05/24 08:50:42;;;;;;;3.50;1.90;;;;;;;21.02;25.38;98617.52;104599;1271;63169;-25
2022/05/24 08:53:12;;;;;;;3.70;1.70;;;;;;;21.66;25.20;98618.21;104377;1273;63075;-25
2022/05/24 08:55:41;;;;;;;2.40;1.70;;;;;;;21.99;24.19;98614.45;104730;1273;77123;-25
2022/05/24 08:58:34;;;;;;;3.20;2.10;;;;;;;21.97;25.39;98610.09;104835;1273;76705;-25
2022/05/24 09:01:04;;;;;;;3.10;1.60;;;;;;;20.95;24.90;98610.05;104620;1273;75218;-25
2022/05/24 09:03:31;;;;;;;3.70;2.20;;;;;;;20.62;25.91;98609.95;104583;1273;63091;-25
2022/05/24 09:06:24;;;;;;;6.20;3.00;;;;;;;21.04;26.79;98609.19;104638;1273;61209;-25
2022/05/24 09:09:15;;;;;;;11.80;4.20;;;;;;;20.80;25.98;98609.73;104623;1273;76469;-25
2022/05/24 09:12:06;;;;;;;7.40;2.70;;;;;;;20.33;26.06;98606.91;104422;1276;77031;-25
2022/05/24 09:15:15;;;;;;;4.30;1.80;;;;;;;21.23;25.88;98615.23;104790;1273;75131;-25
2022/05/24 09:17:42;;;;;;;3.90;1.50;;;;;;;21.34;25.00;98618.29;104985;1273;61767;-25
2022/05/24 09:20:29;;;;;;;2.20;1.40;;;;;;;21.67;25.61;98618.00;104729;1273;61682;-25
2022/05/24 09:23:31;;;;;;;4.70;1.40;;;;;;;22.10;24.26;98615.30;104605;1273;76208;-25
2022/05/24 09:26:07;;;;;;;4.40;1.60;;;;;;;22.32;24.10;98609.44;104598;1274;77035;-25
2022/05/24 09:28:57;;;;;;;1.50;1.20;;;;;;;22.55;25.04;98604.42;104738;1273;74290;-25
2022/05/24 09:31:43;;;;;;;2.90;1.60;;;;;;;22.52;24.08;98599.79;104711;1273;61861;-25
2022/05/24 09:34:16;;;;;;;13.30;4.90;;;;;;;22.68;24.05;98601.16;104611;1273;63035;-25
2022/05/24 09:36:55;;;;;;;3.40;2.20;;;;;;;21.68;24.90;98602.20;104648;1273;76440;-25
2022/05/24 09:39:25;;;;;;;2.90;1.50;;;;;;;21.87;25.61;98602.78;104640;1273;76864;-25
2022/05/24 09:42:13;;;;;;;3.00;1.80;;;;;;;22.31;25.25;98607.52;104675;1273;75439;-25
2022/05/24 09:44:47;;;;;;;4.60;1.30;;;;;;;22.65;25.87;98603.14;104832;1273;63636;-25
2022/05/24 09:47:46;;;;;;;2.60;1.40;;;;;;;22.69;25.48;98603.27;104817;1272;63048;-25
2022/05/24 09:50:21;;;;;;;4.90;2.30;;;;;;;22.95;24.36;98603.67;104627;1273;75904;-25
2022/05/24 09:53:13;;;;;;;4.20;1.80;;;;;;;23.12;23.53;98604.52;104674;1273;75701;-25
2022/05/24 09:55:45;;;;;;;2.90;2.10;;;;;;;21.86;25.72;98598.48;104629;1273;75520;-25
2022/05/24 09:58:24;;;;;;;2.60;1.40;;;;;;;22.24;25.54;98603.23;104590;1273;63055;-25
2022/05/24 10:01:09;;;;;;;3.20;1.70;;;;;;;22.82;24.77;98606.65;104623;1273;63021;-26
2022/05/24 10:03:45;;;;;;;3.60;1.40;;;;;;;23.09;24.87;98600.88;104660;1273;75561;-25
2022/05/24 10:06:22;;;;;;;2.20;1.40;;;;;;;23.71;24.35;98596.98;104477;1273;76730;-25
2022/05/24 10:09:13;;;;;;;2.10;1.20;;;;;;;23.50;22.04;98596.92;104659;1273;74302;-25
2022/05/24 10:12:13;;;;;;;2.90;1.50;;;;;;;23.68;23.30;98597.20;104402;1273;62151;-25
2022/05/24 10:14:50;;;;;;;3.50;2.70;;;;;;;23.38;22.76;98602.75;104617;1271;63260;-25
2022/05/24 10:17:50;;;;;;;2.30;1.50;;;;;;;23.44;23.47;98597.73;104800;1271;76889;-25
2022/05/24 10:20:27;;;;;;;2.60;1.60;;;;;;;24.22;22.49;98594.67;104596;1271;76137;-25
2022/05/24 10:23:24;;;;;;;2.90;1.50;;;;;;;24.07;22.65;98588.76;104669;1271;75398;-25
2022/05/24 10:26:20;;;;;;;3.60;1.80;;;;;;;23.82;22.13;98589.52;104629;1271;62093;-25
2022/05/24 10:28:50;;;;;;;2.60;1.40;;;;;;;23.80;22.98;98587.46;104636;1271;61103;-25
2022/05/24 10:31:30;;;;;;;2.20;1.60;;;;;;;23.39;23.53;98584.70;104797;1271;75507;-25
2022/05/24 10:39:51;;;;;;;3.80;1.50;;;;;;;23.07;23.56;98578.70;105062;1274;63126;-25
2022/05/24 10:42:26;;;;;;;2.70;1.40;;;;;;;23.08;24.29;98577.52;105080;1271;62884;-25
2022/05/24 10:45:03;;;;;;;5.10;2.10;;;;;;;22.99;23.70;98574.00;104925;1271;76696;-25
2022/05/24 10:47:44;;;;;;;5.80;2.00;;;;;;;21.93;22.94;98573.77;104671;1271;76692;-25
2022/05/24 10:50:20;;;;;;;2.00;1.40;;;;;;;21.84;22.98;98579.59;104622;1271;74597;-25
2022/05/24 10:52:50;;;;;;;1.70;1.20;;;;;;;22.68;24.69;98580.85;104629;1271;61769;-25
2022/05/24 10:55:47;;;;;;;3.00;2.40;;;;;;;23.54;24.53;98578.15;104782;1271;63016;-25
2022/05/24 10:58:15;;;;;;;2.60;1.50;;;;;;;22.72;22.82;98577.30;104947;1274;75450;-25
2022/05/24 11:00:46;;;;;;;4.30;1.70;;;;;;;22.58;23.01;98578.84;104937;1271;77073;-25
2022/05/24 11:03:19;;;;;;;4.10;1.80;;;;;;;21.96;23.55;98575.20;104640;1272;75436;-25
2022/05/24 11:05:56;;;;;;;3.70;1.40;;;;;;;22.51;23.43;98577.80;104555;1271;62305;-25
2022/05/24 11:08:48;;;;;;;7.00;1.40;;;;;;;22.88;24.84;98577.16;104505;1271;62799;-25
2022/05/24 11:11:35;;;;;;;4.30;1.20;;;;;;;23.65;23.17;98571.81;104768;1274;76412;-24
2022/05/24 11:14:11;;;;;;;2.30;1.20;;;;;;;23.99;22.44;98573.20;104673;1271;76963;-25
2022/05/24 11:16:46;;;;;;;3.30;1.60;;;;;;;23.82;22.61;98571.69;104872;1271;75307;-24
2022/05/24 11:19:18;;;;;;;2.30;1.50;;;;;;;22.71;23.58;98574.52;104730;1272;62187;-24
2022/05/24 11:21:54;;;;;;;6.20;1.50;;;;;;;22.22;24.72;98572.23;104829;1271;63045;-25
2022/05/24 11:24:45;;;;;;;4.20;1.70;;;;;;;23.00;25.04;98572.92;104658;1273;76436;-25
2022/05/24 11:27:15;;;;;;;2.20;1.40;;;;;;;23.09;24.65;98573.35;104708;1273;76182;-25
2022/05/24 11:29:51;;;;;;;6.90;1.70;;;;;;;23.18;23.78;98572.53;105035;1274;75412;-25
2022/05/24 11:32:34;;;;;;;2.70;1.30;;;;;;;23.01;24.40;98575.85;104993;1274;62802;-24
2022/05/24 11:35:23;;;;;;;6.80;1.70;;;;;;;22.71;24.28;98579.64;104704;1274;61945;-25
2022/05/24 11:37:52;;;;;;;1.40;1.20;;;;;;;23.24;23.41;98577.23;104683;1273;76303;-25
2022/05/24 11:40:36;;;;;;;4.70;1.90;;;;;;;23.21;23.11;98573.58;104657;1272;77005;-24
2022/05/24 11:43:38;;;;;;;3.20;1.50;;;;;;;23.21;22.07;98574.48;105083;1272;75593;-25
2022/05/24 11:46:29;;;;;;;2.90;1.40;;;;;;;23.41;23.71;98568.23;104841;1274;63296;-24
2022/05/24 11:48:57;;;;;;;4.50;2.00;;;;;;;23.68;22.79;98564.26;105035;1271;61962;-24
2022/05/24 11:51:31;;;;;;;3.70;1.90;;;;;;;23.04;22.85;98564.23;105131;1274;75603;-25
2022/05/24 11:54:00;;;;;;;2.00;1.20;;;;;;;22.70;23.02;98562.88;105034;1273;77006;-25
2022/05/24 11:56:29;;;;;;;1.80;1.30;;;;;;;23.24;24.03;98565.17;105099;1272;75408;-24
2022/05/24 11:58:58;;;;;;;1.50;1.20;;;;;;;23.05;22.13;98564.84;104705;1273;63458;-25
2022/05/24 12:01:32;;;;;;;4.70;1.10;;;;;;;23.29;21.61;98558.69;104667;1274;63327;-24
2022/05/24 12:10:24;;;;;;;2.30;1.50;;;;;;;23.35;22.92;98552.59;104320;1277;75397;-24
2022/05/24 12:12:57;;;;;;;1.60;1.20;;;;;;;23.34;24.31;98552.70;104554;1277;63130;-24
2022/05/24 12:15:30;;;;;;;5.10;1.80;;;;;;;23.21;24.51;98550.94;104459;1272;62164;-25
2022/05/24 12:17:58;;;;;;;3.00;1.80;;;;;;;22.34;23.20;98548.85;104711;1271;76511;-23
2022/05/24 12:20:33;;;;;;;2.50;1.10;;;;;;;21.86;24.05;98549.83;104676;1273;75103;-24
2022/05/24 12:23:07;;;;;;;2.30;1.50;;;;;;;22.60;25.46;98547.56;104612;1272;75447;-26
2022/05/24 12:26:03;;;;;;;2.60;1.10;;;;;;;23.03;23.83;98543.26;104827;1273;62104;-23
2022/05/24 12:28:36;;;;;;;2.50;1.30;;;;;;;23.28;23.67;98544.84;104988;1271;63068;-23
2022/05/24 12:31:13;;;;;;;3.00;1.50;;;;;;;23.36;23.66;98539.70;104674;1271;76495;-24
2022/05/24 12:33:42;;;;;;;1.70;1.20;;;;;;;23.29;24.00;98540.58;104803;1271;77134;-24
2022/05/24 12:36:23;;;;;;;2.00;1.30;;;;;;;22.87;22.26;98539.71;104911;1273;74321;-23
2022/05/24 12:38:56;;;;;;;1.90;1.30;;;;;;;23.17;22.43;98536.74;104782;1271;63153;-24